DW8722 Weather Reports


time (UTC)temp
C
wind
direction
speed
KPH
gust
KPH
rain 1hr
cm
rain 24hr
cm
rain mn
cm
humidity
%
barometer
mb
20220525140239 17 203 11.3 22.5 0.00 5.79 0.38 94 1008.0
20220525135239 17 238 11.3 20.9 0.00 5.79 0.38 95 1007.8
20220525134233 17 214 6.4 16.1 0.00 5.77 0.33 95 1007.6
20220525133158 17 211 6.4 16.1 0.00 5.77 0.33 95 1007.3
20220525132209 16 232 8.0 17.7 0.00 5.77 0.33 95 1007.0
20220525131219 16 205 8.0 19.3 0.00 5.77 0.33 95 1006.7
20220525130206 16 241 8.0 20.9 0.00 5.77 0.33 95 1006.8
20220525125229 16 218 8.0 20.9 0.00 5.77 0.33 95 1006.8
20220525124248 16 225 8.0 16.1 0.00 5.77 0.33 95 1006.9
20220525123302 16 205 9.7 16.1 0.00 5.77 0.33 95 1006.8
20220525122325 16 199 8.0 16.1 0.00 5.77 0.33 95 1006.8
20220525121321 16 207 8.0 16.1 0.00 5.77 0.33 95 1006.8
20220525120314 16 202 8.0 16.1 0.00 5.77 0.33 95 1006.7
20220525115259 15 209 6.4 11.3 0.00 5.77 0.33 95 1006.5
20220525114319 15 194 4.8 12.9 0.00 5.77 0.33 95 1006.4
20220525113245 15 228 6.4 12.9 0.00 5.77 0.33 95 1006.2
20220525112250 15 205 4.8 11.3 0.00 5.77 0.33 95 1006.1
20220525111251 15 187 4.8 6.4 0.00 5.77 0.33 95 1005.9
20220525110254 15 227 1.6 6.4 0.00 5.77 0.33 95 1005.6
20220525105312 15 225 3.2 9.7 0.00 5.77 0.33 94 1005.5
20220525104242 15 211 4.8 12.9 0.00 5.77 0.33 95 1005.6
20220525103212 16 208 6.4 17.7 0.00 5.77 0.33 95 1005.3
20220525102221 16 186 8.0 17.7 0.00 5.77 0.33 95 1005.4
20220525101223 16 209 8.0 30.6 0.00 5.77 0.33 95 1005.4
20220525100210 16 225 14.5 43.5 0.00 5.77 0.33 95 1005.5
20220525095203 16 240 20.9 43.5 0.00 5.77 0.33 95 1005.6
20220525094129 16 205 14.5 32.2 0.00 5.77 0.33 95 1004.7
20220525093139 16 63 14.5 32.2 0.00 5.77 0.33 95 1002.2
20220525092159 16 90 14.5 24.1 0.00 5.77 0.33 95 1003.6
20220525091137 16 117 12.9 27.4 0.00 5.77 0.33 95 1004.8
20220525090133 16 134 12.9 27.4 0.00 5.77 0.33 95 1005.8
20220525085130 16 155 11.3 20.9 0.00 5.77 0.33 95 1006.4
20220525084121 16 183 11.3 22.5 0.00 5.77 0.33 95 1007.1
20220525083059 16 189 11.3 25.7 0.00 5.77 0.33 95 1007.5
20220525082100 16 186 9.7 25.7 0.00 5.77 0.33 95 1007.2
20220525081110 16 156 9.7 19.3 0.00 5.77 0.33 95 1006.7
20220525080038 16 169 4.8 17.7 0.00 5.77 0.33 95 1005.8
20220525075045 16 103 8.0 17.7 0.00 5.77 0.33 95 1003.5
20220525074019 16 42 3.2 8.0 0.15 5.74 0.33 95 1005.5
20220525073013 16 90 1.6 3.2 0.13 5.71 0.30 95 1005.7
20220525071959 16 91 1.6 3.2 0.13 5.69 0.25 95 1005.9
20220525071007 16 155 0.0 3.2 0.13 5.66 0.25 95 1006.2
20220525065951 16 195 0.0 0.0 0.20 5.66 0.25 95 1006.4
20220525065007 16 195 0.0 1.6 0.13 5.61 0.20 95 1006.6
20220525063946 16 195 4.8 12.9 0.15 5.59 0.15 95 1007.2
20220525062932 16 194 6.4 12.9 0.23 5.56 0.15 95 1007.5
20220525061917 16 188 4.8 11.3 0.20 5.54 0.13 95 1008.0
20220525060941 16 164 3.2 9.7 0.13 5.51 0.10 95 1008.0
20220525055909 16 146 4.8 9.7 0.25 5.49 0.08 95 1008.0
20220525054843 16 67 0.0 3.2 0.00 5.44 0.03 95 1007.7
20220525053814 16 67 1.6 3.2 0.00 5.44 0.03 95 1007.5
20220525052744 16 67 0.0 4.8 0.00 5.44 0.03 95 1007.2
20220525051754 16 67 1.6 12.9 0.00 5.41 0.00 95 1007.4
20220525050755 16 49 4.8 16.1 0.00 5.41 0.00 95 1007.3
20220525045815 16 71 4.8 16.1 0.13 5.41 5.44 95 1007.6
20220525044800 16 79 4.8 12.9 0.43 5.41 5.44 95 1007.8
20220525043730 16 73 1.6 11.3 0.79 5.33 5.36 95 1008.4
20220525042720 16 76 3.2 9.7 0.30 5.23 5.23 95 1008.6
20220525041646 16 64 3.2 12.9 0.23 5.18 5.21 95 1008.7
20220525040649 16 51 4.8 12.9 0.25 5.18 5.18 94 1008.8
20220525035700 16 68 3.2 9.7 0.23 5.11 5.13 94 1009.1
20220525034658 16 80 3.2 9.7 0.33 5.11 5.08 94 1009.3
20220525033653 16 91 3.2 6.4 0.20 5.05 5.03 94 1009.3
20220525032623 16 59 1.6 6.4 0.23 4.98 4.98 94 1009.5
20220525031615 16 57 1.6 6.4 0.25 4.93 4.98 94 1009.4
20220525030627 16 67 1.6 4.8 0.91 4.88 4.90 94 1009.6
20220525025647 16 129 3.2 6.4 1.65 4.70 4.72 94 1010.3
20220525024613 16 294 3.2 14.5 2.79 4.17 4.22 94 1010.3
20220525023548 16 5 11.3 22.5 0.51 3.91 3.94 94 1008.7
20220525022603 16 5 12.9 22.5 0.84 3.84 3.84 94 1008.2
20220525021615 16 22 11.3 20.9 0.51 3.73 3.76 94 1008.2
20220525020540 16 46 9.7 20.9 1.40 3.61 3.63 94 1008.7
20220525015514 16 77 4.8 17.7 0.69 3.30 3.30 94 1009.3
20220525014453 17 31 9.7 25.7 0.97 3.20 3.20 93 1008.6
20220525013513 17 46 14.5 27.4 1.17 3.02 3.05 93 1008.1
20220525012443 17 355 17.7 32.2 3.05 2.34 2.36 92 1007.9
20220525011449 17 325 16.1 33.8 6.43 0.84 0.91 92 1009.0
20220525010448 18 289 11.3 33.8 0.00 0.66 0.66 92 1008.0
20220525005510 18 336 9.7 19.3 0.00 0.66 0.66 93 1007.1
20220525004525 18 48 4.8 12.9 0.00 0.66 0.66 92 1006.4
20220525003533 18 22 6.4 9.7 0.00 0.66 0.66 92 1006.1
20220525002039 19 51 4.8 12.9 0.13 0.66 0.66 92 1005.3
20220525001042 19 30 4.8 16.1 0.33 0.66 0.66 91 1005.4
20220525000050 19 94 6.4 20.9 0.94 0.58 0.61 90 1005.5
20220524235035 20 69 9.7 20.9 0.00 0.53 0.53 89 1005.3
20220524234050 20 39 11.3 19.3 0.00 0.53 0.53 90 1005.0
20220524233025 20 44 8.0 16.1 0.00 0.53 0.53 89 1005.1
20220524232010 20 32 6.4 14.5 0.00 0.53 0.53 89 1005.1
20220524231023 19 32 8.0 16.1 0.00 0.53 0.53 89 1005.2
20220524230044 19 22 4.8 16.1 0.00 0.53 0.53 90 1005.3
20220524225015 19 30 8.0 17.7 0.00 0.53 0.53 90 1005.4
20220524224013 19 5 6.4 17.7 0.00 0.53 0.53 89 1005.4
20220524222955 19 13 8.0 16.1 0.00 0.53 0.53 89 1005.8
20220524221938 19 18 9.7 16.1 0.00 0.53 0.53 89 1006.2
20220524220948 19 40 6.4 14.5 0.00 0.53 0.53 90 1006.4
20220524215937 19 34 8.0 14.5 0.00 0.53 0.53 89 1006.5
20220524214939 19 38 4.8 11.3 0.00 0.53 0.53 90 1006.7
20220524213912 19 11 6.4 12.9 0.00 0.53 0.53 90 1006.9
20220524212844 19 23 8.0 14.5 0.00 0.53 0.53 90 1006.9
20220524211811 19 5 8.0 22.5 0.00 0.53 0.53 90 1007.0
20220524210833 18 0 11.3 22.5 0.00 0.53 0.53 90 1007.1
20220524205811 19 44 9.7 27.4 0.00 0.53 0.53 90 1007.1
20220524204758 19 350 11.3 27.4 0.00 0.53 0.53 90 1007.2
20220524203745 19 0 8.0 25.7 0.00 0.53 0.53 92 1007.2
20220524202750 18 321 11.3 25.7 0.00 0.53 0.53 92 1007.2
20220524201738 18 321 12.9 20.9 0.00 0.53 0.53 92 1007.5
20220524200727 18 355 9.7 20.9 0.00 0.53 0.53 92 1007.7
20220524195736 18 323 9.7 17.7 0.00 0.53 0.53 92 1008.0
20220524194735 18 336 11.3 25.7 0.00 0.53 0.53 92 1008.0
20220524193753 18 310 12.9 25.7 0.00 0.53 0.53 92 1008.2
20220524192804 18 343 14.5 22.5 0.10 0.53 0.53 93 1008.1
20220524191737 18 307 12.9 22.5 0.33 0.53 0.53 93 1008.3
20220524190758 17 22 14.5 22.5 0.00 0.41 0.43 92 1008.4
20220524185820 18 257 17.7 30.6 0.00 0.41 0.41 91 1008.4
20220524184821 18 304 17.7 35.4 0.15 0.41 0.41 90 1008.7
20220524183755 20 305 12.9 35.4 0.38 0.36 0.41 86 1008.1
20220524182739 22 167 1.6 8.0 1.63 0.25 0.25 90 1007.9
20220524181716 22 159 1.6 1.6 0.38 0.15 0.15 89 1008.0
20220524180733 22 157 3.2 8.0 0.00 0.03 0.03 88 1008.1
20220524175741 22 124 3.2 11.3 0.00 0.00 0.00 88 1008.1
20220524174800 22 141 3.2 12.9 0.00 0.00 0.00 88 1008.3
20220524173816 22 161 6.4 12.9 0.00 0.00 0.00 88 1008.3
20220524172810 22 142 3.2 12.9 0.00 0.00 0.00 88 1008.3
20220524171831 22 123 4.8 12.9 0.00 0.00 0.00 89 1008.6
20220524170855 22 159 8.0 12.9 0.00 0.00 0.00 89 1008.7
20220524165829 22 134 6.4 14.5 0.00 0.00 0.00 89 1008.7
20220524164827 21 165 8.0 16.1 0.00 0.00 0.00 90 1008.8
20220524163838 21 168 8.0 16.1 0.00 0.00 0.00 90 1008.9
20220524162811 21 144 8.0 29.0 0.00 0.00 0.00 90 1009.0
20220524161758 21 172 12.9 29.0 0.00 0.00 0.00 90 1009.1
20220524160805 21 123 11.3 20.9 0.00 0.00 0.00 92 1009.1
20220524155810 20 138 11.3 22.5 0.00 0.00 0.00 92 1009.1
20220524154805 20 138 12.9 22.5 0.00 0.00 0.00 92 1009.2
20220524153748 20 134 9.7 20.9 0.00 0.00 0.00 93 1009.1
20220524152717 20 114 11.3 19.3 0.00 0.00 0.00 93 1009.2
20220524151724 20 150 12.9 24.1 0.00 0.00 0.00 93 1009.5
20220524150742 20 97 11.3 24.1 0.00 0.00 0.00 94 1009.6
20220524145720 20 128 8.0 19.3 0.00 0.00 0.00 94 1009.8
20220524144726 20 129 8.0 19.3 0.00 0.00 0.00 94 1009.7
20220524143705 19 150 8.0 19.3 0.00 0.00 0.00 94 1009.7
20220524142703 19 123 8.0 22.5 0.00 0.00 0.00 94 1009.4
20220524141650 19 106 11.3 22.5 0.00 0.00 0.00 94 1009.2
20220524140625 19 97 9.7 19.3 0.00 0.00 0.00 94 1009.4